createdAt,value
2018-11-23T00:00:32.992Z,92.90
2018-11-23T00:01:05.911Z,99.40
2018-11-23T00:01:38.492Z,87.05
2018-11-23T00:02:11.100Z,93.47
2018-11-23T00:02:44.680Z,91.90
2018-11-23T00:03:17.283Z,91.30
2018-11-23T00:03:49.936Z,88.80
2018-11-23T00:04:22.568Z,83.82
2018-11-23T00:04:55.298Z,105.12
2018-11-23T00:05:27.964Z,95.80
2018-11-23T00:06:00.597Z,88.00
2018-11-23T00:06:33.198Z,95.62
2018-11-23T00:07:05.853Z,80.95
2018-11-23T00:07:38.883Z,90.92
2018-11-23T00:08:11.473Z,99.60
2018-11-23T00:08:44.311Z,90.05
2018-11-23T00:09:16.894Z,85.80
2018-11-23T00:09:49.473Z,93.00
2018-11-23T00:10:23.339Z,91.82
2018-11-23T00:10:55.914Z,90.10
2018-11-23T00:11:28.519Z,92.17
2018-11-23T00:12:01.117Z,92.50
2018-11-23T00:12:33.712Z,91.70
2018-11-23T00:13:06.307Z,94.77
2018-11-23T00:13:38.964Z,92.62
2018-11-23T00:14:11.560Z,96.20
2018-11-23T00:14:44.174Z,87.97
2018-11-23T00:15:19.070Z,93.15
2018-11-23T00:15:51.655Z,90.67
2018-11-23T00:16:24.215Z,94.05
2018-11-23T00:16:56.803Z,92.33
2018-11-23T00:17:29.406Z,86.92
2018-11-23T00:18:02.001Z,84.35
2018-11-23T00:18:34.607Z,85.77
2018-11-23T00:19:07.244Z,93.52
2018-11-23T00:19:39.839Z,88.10
2018-11-23T00:20:14.948Z,81.25
2018-11-23T00:20:47.536Z,86.90
2018-11-23T00:21:20.140Z,92.37
2018-11-23T00:21:52.716Z,87.53
2018-11-23T00:22:25.342Z,82.53
2018-11-23T00:22:57.958Z,103.58
2018-11-23T00:23:30.542Z,96.15
2018-11-23T00:24:03.159Z,80.50
2018-11-23T00:24:35.750Z,94.70
2018-11-23T00:25:10.423Z,90.20
2018-11-23T00:25:43.020Z,89.45
2018-11-23T00:26:15.649Z,97.42
2018-11-23T00:26:48.253Z,88.62
2018-11-23T00:27:20.869Z,92.88
2018-11-23T00:27:53.992Z,98.50
2018-11-23T00:28:26.600Z,86.12
2018-11-23T00:28:59.189Z,94.37
2018-11-23T00:29:31.772Z,100.05
2018-11-23T00:30:05.859Z,91.05
2018-11-23T00:30:38.442Z,95.65
2018-11-23T00:31:11.021Z,92.85
2018-11-23T00:31:43.613Z,85.28
2018-11-23T00:32:16.191Z,86.32
2018-11-23T00:32:49.209Z,94.17
2018-11-23T00:33:21.852Z,91.82
2018-11-23T00:33:54.748Z,95.00
2018-11-23T00:34:27.404Z,96.15
2018-11-23T00:35:00.009Z,92.22
2018-11-23T00:35:32.588Z,90.40
2018-11-23T00:36:05.736Z,95.45
2018-11-23T00:36:38.313Z,82.57
2018-11-23T00:37:10.933Z,84.50
2018-11-23T00:37:43.983Z,88.35
2018-11-23T00:38:16.577Z,88.37
2018-11-23T00:38:49.194Z,87.20
2018-11-23T00:39:22.098Z,88.95
2018-11-23T00:39:54.699Z,90.50
2018-11-23T00:40:30.246Z,88.35
2018-11-23T00:41:02.851Z,89.60
2018-11-23T00:41:35.466Z,83.87
2018-11-23T00:42:08.069Z,88.80
2018-11-23T00:42:41.039Z,85.67
2018-11-23T00:43:13.637Z,86.90
2018-11-23T00:43:46.233Z,82.70
2018-11-23T00:44:18.852Z,83.65
2018-11-23T00:45:54.516Z,83.42
2018-11-23T00:46:27.100Z,86.65
2018-11-23T00:46:59.675Z,87.90
2018-11-23T00:47:32.268Z,82.82
2018-11-23T00:48:05.052Z,94.55
2018-11-23T00:48:37.640Z,85.72
2018-11-23T00:49:10.224Z,83.95
2018-11-23T00:49:42.844Z,83.58
2018-11-23T00:50:16.623Z,90.80
2018-11-23T00:50:49.229Z,87.72
2018-11-23T00:51:21.822Z,93.27
2018-11-23T00:51:54.405Z,95.20
2018-11-23T00:52:27.084Z,85.32
2018-11-23T00:53:00.171Z,86.05
2018-11-23T00:53:32.749Z,88.70
2018-11-23T00:54:05.375Z,85.32
2018-11-23T00:54:38.001Z,92.88
2018-11-23T00:55:12.235Z,87.15
2018-11-23T00:55:44.803Z,84.25
2018-11-23T00:56:17.379Z,80.35
2018-11-23T00:56:49.964Z,82.62
2018-11-23T00:57:22.558Z,83.35
2018-11-23T00:57:55.197Z,86.90
2018-11-23T00:58:27.796Z,86.90
2018-11-23T00:59:00.791Z,95.38
2018-11-23T00:59:33.390Z,81.53
2018-11-23T01:00:09.985Z,90.12
2018-11-23T01:00:42.595Z,90.10
2018-11-23T01:01:15.224Z,94.45
2018-11-23T01:01:53.543Z,91.28
2018-11-23T01:02:26.129Z,84.40
2018-11-23T01:02:59.502Z,87.17
2018-11-23T01:03:32.083Z,85.07
2018-11-23T01:04:04.782Z,88.40
2018-11-23T01:04:37.375Z,81.65
2018-11-23T01:05:11.201Z,99.83
2018-11-23T01:05:43.842Z,82.10
2018-11-23T01:06:16.436Z,79.40
2018-11-23T01:06:49.024Z,82.47
2018-11-23T01:07:21.663Z,88.80
2018-11-23T01:07:54.426Z,94.90
2018-11-23T01:08:27.012Z,89.40
2018-11-23T01:08:59.618Z,84.85
2018-11-23T01:09:32.301Z,102.00
2018-11-23T01:10:07.396Z,90.85
2018-11-23T01:10:39.996Z,93.87
2018-11-23T01:11:12.657Z,84.72
2018-11-23T01:11:45.240Z,82.35
2018-11-23T01:12:17.837Z,89.97
2018-11-23T01:12:51.493Z,86.75
2018-11-23T01:13:24.081Z,86.10
2018-11-23T01:13:56.709Z,80.15
2018-11-23T01:14:29.477Z,82.20
2018-11-23T01:15:02.104Z,86.55
2018-11-23T01:15:34.701Z,89.05
2018-11-23T01:16:07.290Z,93.00
2018-11-23T01:16:39.902Z,96.22
2018-11-23T01:17:12.484Z,105.35
2018-11-23T01:17:45.060Z,95.92
2018-11-23T01:18:17.650Z,97.10
2018-11-23T01:18:50.251Z,90.65
2018-11-23T01:19:22.847Z,104.47
2018-11-23T01:19:55.489Z,94.90
2018-11-23T01:20:28.336Z,87.27
2018-11-23T01:21:00.916Z,87.95
2018-11-23T01:21:33.555Z,87.55
2018-11-23T01:22:06.201Z,98.30
2018-11-23T01:22:39.350Z,96.75
2018-11-23T01:23:11.927Z,84.37
2018-11-23T01:23:44.517Z,94.50
2018-11-23T01:24:17.093Z,94.20
2018-11-23T01:24:49.677Z,90.92
2018-11-23T01:25:23.192Z,87.80
2018-11-23T01:25:55.807Z,88.87
2018-11-23T01:26:28.402Z,92.40
2018-11-23T01:27:00.980Z,83.20
2018-11-23T01:27:33.592Z,91.00
2018-11-23T01:28:06.187Z,91.30
2018-11-23T01:28:38.758Z,88.05
2018-11-23T01:29:11.349Z,97.00
2018-11-23T01:29:43.923Z,92.70
2018-11-23T01:30:19.682Z,89.13
2018-11-23T01:30:52.279Z,90.50
2018-11-23T01:31:24.870Z,86.53
2018-11-23T01:31:57.465Z,87.17
2018-11-23T01:32:30.040Z,87.10
2018-11-23T01:33:02.643Z,95.77
2018-11-23T01:33:35.217Z,94.30
2018-11-23T01:34:07.796Z,89.47
2018-11-23T01:34:40.382Z,94.47
2018-11-23T01:35:13.223Z,90.60
2018-11-23T01:35:45.819Z,97.92
2018-11-23T01:36:18.419Z,92.75
2018-11-23T01:36:51.012Z,89.60
2018-11-23T01:37:23.692Z,92.97
2018-11-23T01:37:56.274Z,93.92
2018-11-23T01:38:28.897Z,94.47
2018-11-23T01:39:01.507Z,94.32
2018-11-23T01:39:34.096Z,81.80
2018-11-23T01:40:08.457Z,84.83
2018-11-23T01:40:41.053Z,91.67
2018-11-23T01:41:13.657Z,85.28
2018-11-23T01:41:46.255Z,84.15
2018-11-23T01:42:18.855Z,92.10
2018-11-23T01:42:51.879Z,96.82
2018-11-23T01:43:24.454Z,92.95
2018-11-23T01:43:57.059Z,98.47
2018-11-23T01:44:33.719Z,88.15
2018-11-23T01:45:07.483Z,88.22
2018-11-23T01:45:40.082Z,94.77
2018-11-23T01:46:12.679Z,94.75
2018-11-23T01:46:45.304Z,99.65
2018-11-23T01:47:19.751Z,97.17
2018-11-23T01:47:52.376Z,89.50
2018-11-23T01:48:24.951Z,91.00
2018-11-23T01:48:57.574Z,92.95
2018-11-23T01:49:30.159Z,94.65
2018-11-23T01:50:02.988Z,89.28
2018-11-23T01:50:35.574Z,100.67
2018-11-23T01:51:08.155Z,89.15
2018-11-23T01:51:40.746Z,92.78
2018-11-23T01:52:13.375Z,94.35
2018-11-23T01:52:47.119Z,90.17
2018-11-23T01:53:19.703Z,85.03
2018-11-23T01:53:52.285Z,90.28
2018-11-23T01:54:24.903Z,91.50
2018-11-23T01:54:57.502Z,86.70
2018-11-23T01:55:30.105Z,90.42
2018-11-23T01:56:02.711Z,96.60
2018-11-23T01:56:35.318Z,91.63
2018-11-23T01:57:07.961Z,88.33
2018-11-23T01:57:41.124Z,91.95
2018-11-23T01:58:13.731Z,86.95
2018-11-23T01:58:46.327Z,86.05
2018-11-23T01:59:18.919Z,88.33
2018-11-23T01:59:51.522Z,91.15
2018-11-23T02:00:25.469Z,91.08
2018-11-23T02:00:58.036Z,93.40
2018-11-23T02:01:30.623Z,85.67
2018-11-23T02:02:03.246Z,83.78
2018-11-23T02:02:35.862Z,86.42
2018-11-23T02:03:08.445Z,85.70
2018-11-23T02:03:41.029Z,85.72
2018-11-23T02:04:13.616Z,87.47
2018-11-23T02:04:46.198Z,93.05
2018-11-23T02:05:18.875Z,95.95
2018-11-23T02:05:51.498Z,98.03
2018-11-23T02:06:24.087Z,89.62
2018-11-23T02:06:56.700Z,93.65
2018-11-23T02:07:29.312Z,94.70
2018-11-23T02:08:01.901Z,89.72
2018-11-23T02:08:34.537Z,100.70
2018-11-23T02:09:07.707Z,87.40
2018-11-23T02:09:40.324Z,92.27
2018-11-23T02:10:14.382Z,88.50
2018-11-23T02:10:47.029Z,85.92
2018-11-23T02:11:19.650Z,82.17
2018-11-23T02:11:52.304Z,89.55
2018-11-23T02:12:24.916Z,86.30
2018-11-23T02:12:57.528Z,91.82
2018-11-23T02:13:30.141Z,96.55
2018-11-23T02:14:02.786Z,89.22
2018-11-23T02:14:35.401Z,93.15
2018-11-23T02:15:11.317Z,98.45
2018-11-23T02:15:43.926Z,89.75
2018-11-23T02:16:16.576Z,86.90
2018-11-23T02:16:49.301Z,87.95
2018-11-23T02:17:23.321Z,89.83
2018-11-23T02:17:55.918Z,91.35
2018-11-23T02:18:28.519Z,89.77
2018-11-23T02:19:01.129Z,92.85
2018-11-23T02:19:33.753Z,90.07
2018-11-23T02:20:08.414Z,87.00
2018-11-23T02:20:41.028Z,89.00
2018-11-23T02:21:13.680Z,85.15
2018-11-23T02:21:46.312Z,92.33
2018-11-23T02:22:18.937Z,84.83
2018-11-23T02:22:54.240Z,86.60
2018-11-23T02:23:26.847Z,85.97
2018-11-23T02:23:59.461Z,86.42
2018-11-23T02:24:32.081Z,94.30
2018-11-23T02:25:04.849Z,91.90
2018-11-23T02:25:37.473Z,82.88
2018-11-23T02:26:10.085Z,94.22
2018-11-23T02:26:42.688Z,88.78
2018-11-23T02:27:15.319Z,87.55
2018-11-23T02:27:47.941Z,90.42
2018-11-23T02:28:20.555Z,101.55
2018-11-23T02:28:53.138Z,83.40
2018-11-23T02:29:25.756Z,91.90
2018-11-23T02:29:58.343Z,82.62
2018-11-23T02:30:30.979Z,96.45
2018-11-23T02:31:08.780Z,87.65
2018-11-23T02:31:41.396Z,85.77
2018-11-23T02:32:14.022Z,87.47
2018-11-23T02:32:46.651Z,82.25
2018-11-23T02:33:19.282Z,81.95
2018-11-23T02:33:51.889Z,92.40
2018-11-23T02:34:24.507Z,89.00
2018-11-23T02:34:57.144Z,87.90
2018-11-23T02:35:29.740Z,88.35
2018-11-23T02:36:02.352Z,91.97
2018-11-23T02:36:34.954Z,87.67
2018-11-23T02:37:07.576Z,96.28
2018-11-23T02:37:40.358Z,94.83
2018-11-23T02:38:12.986Z,84.55
2018-11-23T02:38:45.577Z,96.05
2018-11-23T02:39:18.189Z,83.62
2018-11-23T02:39:50.801Z,95.07
2018-11-23T02:40:23.413Z,91.15
2018-11-23T02:40:56.036Z,86.47
2018-11-23T02:41:28.697Z,90.20
2018-11-23T02:42:01.317Z,85.22
2018-11-23T02:42:33.971Z,90.32
2018-11-23T02:43:06.588Z,90.80
2018-11-23T02:43:39.207Z,94.50
2018-11-23T02:44:11.816Z,91.37
2018-11-23T02:44:44.430Z,96.85
2018-11-23T02:45:19.323Z,87.05
2018-11-23T02:45:51.930Z,93.17
2018-11-23T02:46:24.550Z,92.70
2018-11-23T02:46:57.156Z,90.47
2018-11-23T02:47:29.780Z,100.30
2018-11-23T02:48:02.400Z,83.62
2018-11-23T02:48:35.014Z,96.65
2018-11-23T02:49:07.645Z,82.15
2018-11-23T02:49:40.261Z,81.20
2018-11-23T02:50:12.939Z,89.25
2018-11-23T02:50:45.564Z,88.55
2018-11-23T02:51:18.171Z,93.90
2018-11-23T02:51:50.785Z,102.97
2018-11-23T02:52:23.376Z,90.70
2018-11-23T02:52:55.986Z,92.65
2018-11-23T02:53:28.607Z,95.90
2018-11-23T02:54:01.251Z,92.25
2018-11-23T02:54:33.902Z,100.30
2018-11-23T02:55:07.287Z,92.60
2018-11-23T02:55:39.897Z,87.60
2018-11-23T02:56:12.519Z,86.40
2018-11-23T02:56:46.233Z,104.05
2018-11-23T02:57:18.830Z,96.75
2018-11-23T02:57:51.444Z,94.47
2018-11-23T02:58:24.077Z,92.25
2018-11-23T02:58:56.667Z,90.95
2018-11-23T02:59:29.279Z,95.55
2018-11-23T03:00:01.996Z,102.02
2018-11-23T03:00:34.613Z,89.70
2018-11-23T03:01:07.242Z,100.22
2018-11-23T03:01:41.127Z,97.27
2018-11-23T03:02:13.727Z,92.88
2018-11-23T03:02:46.397Z,93.80
2018-11-23T03:03:19.014Z,103.02
2018-11-23T03:03:51.613Z,88.10
2018-11-23T03:04:24.436Z,102.45
2018-11-23T03:04:57.041Z,92.85
2018-11-23T03:05:29.643Z,87.37
2018-11-23T03:06:02.260Z,96.10
2018-11-23T03:06:35.233Z,102.12
2018-11-23T03:07:07.862Z,101.42
2018-11-23T03:07:40.823Z,86.67
2018-11-23T03:08:13.465Z,91.67
2018-11-23T03:08:46.072Z,95.50
2018-11-23T03:09:18.676Z,97.40
2018-11-23T03:09:51.314Z,89.22
2018-11-23T03:10:23.933Z,91.70
2018-11-23T03:10:56.563Z,103.97
2018-11-23T03:11:29.147Z,98.20
2018-11-23T03:12:01.774Z,91.35
2018-11-23T03:12:34.384Z,90.75
2018-11-23T03:13:07.005Z,103.97
2018-11-23T03:13:39.603Z,107.90
2018-11-23T03:14:12.207Z,94.47
2018-11-23T03:14:44.820Z,96.08
2018-11-23T03:15:18.584Z,98.22
2018-11-23T03:15:51.179Z,98.35
2018-11-23T03:16:23.861Z,100.20
2018-11-23T03:16:56.464Z,106.63
2018-11-23T03:17:29.061Z,101.02
2018-11-23T03:18:01.656Z,94.60
2018-11-23T03:18:34.276Z,95.57
2018-11-23T03:19:07.452Z,99.67
2018-11-23T03:19:40.039Z,101.50
2018-11-23T03:20:14.432Z,97.70
2018-11-23T03:20:47.044Z,96.78
2018-11-23T03:21:19.664Z,93.45
2018-11-23T03:21:52.364Z,96.75
2018-11-23T03:22:24.972Z,88.65
2018-11-23T03:22:58.093Z,94.75
2018-11-23T03:23:30.692Z,97.02
2018-11-23T03:24:03.365Z,105.40
2018-11-23T03:24:35.988Z,108.12
2018-11-23T03:25:09.639Z,92.55
2018-11-23T03:25:42.235Z,96.65
2018-11-23T03:26:14.861Z,103.72
2018-11-23T03:26:47.481Z,100.65
2018-11-23T03:27:20.094Z,96.78
2018-11-23T03:27:53.044Z,123.18
2018-11-23T03:28:25.655Z,91.02
2018-11-23T03:28:58.264Z,106.50
2018-11-23T03:29:30.875Z,91.02
2018-11-23T03:30:04.917Z,97.50
2018-11-23T03:30:37.523Z,103.62
2018-11-23T03:31:12.549Z,99.72
2018-11-23T03:31:42.787Z,107.03
2018-11-23T03:32:15.383Z,109.50
2018-11-23T03:32:48.831Z,114.65
2018-11-23T03:33:21.442Z,102.17
2018-11-23T03:33:54.540Z,102.40
2018-11-23T03:34:27.164Z,98.30
2018-11-23T03:34:59.760Z,104.25
2018-11-23T03:35:32.352Z,84.20
2018-11-23T03:36:05.000Z,103.40
2018-11-23T03:36:37.609Z,104.15
2018-11-23T03:37:10.192Z,100.05
2018-11-23T03:37:43.108Z,110.30
2018-11-23T03:38:15.741Z,103.65
2018-11-23T03:38:48.374Z,101.75
2018-11-23T03:39:20.975Z,94.92
2018-11-23T03:39:53.589Z,104.45
2018-11-23T03:40:26.204Z,110.88
2018-11-23T03:40:58.859Z,98.78
2018-11-23T03:41:31.458Z,110.25
2018-11-23T03:42:04.192Z,101.25
2018-11-23T03:42:36.797Z,108.47
2018-11-23T03:43:09.394Z,111.97
2018-11-23T03:43:42.278Z,105.05
2018-11-23T03:44:14.911Z,105.50
2018-11-23T03:44:47.512Z,102.72
2018-11-23T03:45:20.107Z,102.40
2018-11-23T03:45:52.716Z,100.42
2018-11-23T03:46:25.333Z,103.25
2018-11-23T03:46:57.944Z,110.35
2018-11-23T03:47:30.567Z,99.95
2018-11-23T03:48:03.187Z,114.00
2018-11-23T03:48:35.799Z,107.83
2018-11-23T03:49:08.440Z,108.10
2018-11-23T03:49:41.045Z,107.87
2018-11-23T03:50:14.508Z,117.53
2018-11-23T03:50:47.103Z,103.02
2018-11-23T03:51:19.723Z,107.00
2018-11-23T03:51:52.333Z,95.75
2018-11-23T03:52:24.945Z,115.90
2018-11-23T03:52:57.593Z,101.30
2018-11-23T03:53:30.180Z,103.97
2018-11-23T03:54:03.096Z,108.55
2018-11-23T03:54:35.724Z,113.52
2018-11-23T03:55:08.430Z,113.22
2018-11-23T03:55:41.046Z,115.47
2018-11-23T03:56:13.662Z,106.50
2018-11-23T03:56:46.273Z,106.12
2018-11-23T03:57:18.896Z,104.80
2018-11-23T03:57:51.487Z,106.67
2018-11-23T03:58:24.121Z,105.07
2018-11-23T03:58:56.729Z,108.45
2018-11-23T03:59:29.329Z,108.12
2018-11-23T04:00:01.987Z,109.00
2018-11-23T04:00:34.630Z,114.55
2018-11-23T04:01:07.235Z,117.85
2018-11-23T04:01:39.839Z,112.75
2018-11-23T04:02:12.436Z,101.25
2018-11-23T04:02:45.112Z,110.55
2018-11-23T04:03:17.721Z,104.97
2018-11-23T04:03:50.376Z,107.17
2018-11-23T04:04:23.006Z,104.40
2018-11-23T04:04:56.186Z,113.05
2018-11-23T04:05:28.817Z,102.85
2018-11-23T04:06:01.426Z,127.85
2018-11-23T04:06:34.114Z,111.52
2018-11-23T04:07:06.753Z,104.87
2018-11-23T04:07:39.350Z,119.30
2018-11-23T04:08:11.977Z,115.60
2018-11-23T04:08:44.612Z,120.25
2018-11-23T04:09:17.237Z,116.73
2018-11-23T04:09:49.942Z,106.17
2018-11-23T04:10:22.540Z,133.63
2018-11-23T04:10:55.159Z,123.22
2018-11-23T04:11:27.778Z,115.15
2018-11-23T04:12:00.381Z,125.75
2018-11-23T04:12:32.991Z,119.42
2018-11-23T04:13:05.639Z,118.28
2018-11-23T04:13:38.248Z,116.93
2018-11-23T04:14:10.847Z,110.75
2018-11-23T04:14:43.532Z,121.77
2018-11-23T04:15:16.189Z,114.00
2018-11-23T04:15:48.802Z,124.87
2018-11-23T04:16:21.439Z,123.07
2018-11-23T04:16:54.131Z,119.40
2018-11-23T04:17:26.752Z,115.92
2018-11-23T04:17:59.365Z,117.67
2018-11-23T04:18:31.993Z,133.07
2018-11-23T04:19:04.872Z,123.10
2018-11-23T04:19:37.537Z,117.82
2018-11-23T04:20:11.835Z,120.65
2018-11-23T04:20:51.931Z,121.55
2018-11-23T04:21:24.570Z,119.17
2018-11-23T04:21:57.198Z,106.67
2018-11-23T04:22:29.806Z,115.42
2018-11-23T04:23:02.413Z,118.33
2018-11-23T04:23:35.039Z,115.45
2018-11-23T04:24:07.662Z,110.78
2018-11-23T04:24:40.258Z,130.37
2018-11-23T04:25:13.440Z,125.95
2018-11-23T04:25:46.043Z,116.73
2018-11-23T04:26:24.580Z,116.97
2018-11-23T04:26:51.330Z,122.47
2018-11-23T04:27:23.959Z,125.35
2018-11-23T04:27:56.568Z,116.53
2018-11-23T04:28:29.273Z,125.82
2018-11-23T04:29:01.888Z,126.62
2018-11-23T04:29:34.520Z,133.12
2018-11-23T04:30:09.303Z,114.70
2018-11-23T04:30:41.929Z,121.70
2018-11-23T04:31:14.527Z,125.20
2018-11-23T04:31:47.136Z,115.95
2018-11-23T04:32:20.145Z,118.90
2018-11-23T04:32:52.766Z,122.98
2018-11-23T04:33:25.940Z,116.88
2018-11-23T04:33:58.531Z,113.60
2018-11-23T04:34:31.129Z,124.92
2018-11-23T04:35:04.581Z,127.07
2018-11-23T04:35:37.195Z,129.60
2018-11-23T04:36:09.879Z,119.15
2018-11-23T04:36:42.489Z,123.87
2018-11-23T04:37:15.100Z,125.67
2018-11-23T04:37:48.212Z,123.02
2018-11-23T04:38:20.837Z,126.65
2018-11-23T04:38:53.502Z,134.50
2018-11-23T04:39:26.097Z,106.45
2018-11-23T04:39:58.719Z,126.18
2018-11-23T04:40:31.332Z,127.67
2018-11-23T04:41:04.093Z,138.18
2018-11-23T04:41:36.727Z,124.58
2018-11-23T04:42:09.349Z,134.67
2018-11-23T04:42:42.385Z,124.75
2018-11-23T04:43:15.020Z,120.87
2018-11-23T04:43:47.936Z,118.50
2018-11-23T04:44:20.580Z,115.70
2018-11-23T04:44:53.189Z,122.07
2018-11-23T04:45:25.847Z,119.50
2018-11-23T04:45:58.460Z,129.95
2018-11-23T04:46:31.081Z,122.55
2018-11-23T04:47:03.717Z,132.55
2018-11-23T04:47:36.798Z,133.32
2018-11-23T04:48:09.397Z,133.35
2018-11-23T04:48:42.023Z,131.85
2018-11-23T04:49:14.648Z,126.10
2018-11-23T04:49:47.253Z,117.70
2018-11-23T04:50:19.877Z,116.47
2018-11-23T04:50:52.487Z,127.22
2018-11-23T04:51:25.098Z,115.12
2018-11-23T04:51:57.721Z,123.42
2018-11-23T04:52:30.348Z,132.37
2018-11-23T04:53:02.970Z,116.35
2018-11-23T04:53:35.551Z,116.95
2018-11-23T04:54:08.166Z,124.15
2018-11-23T04:54:40.788Z,123.35
2018-11-23T04:55:13.391Z,125.47
2018-11-23T04:55:45.985Z,117.90
2018-11-23T04:56:18.583Z,112.35
2018-11-23T04:56:51.189Z,121.70
2018-11-23T04:57:23.796Z,115.17
2018-11-23T04:57:56.421Z,124.50
2018-11-23T04:58:29.062Z,123.60
2018-11-23T04:59:01.662Z,116.70
2018-11-23T04:59:34.305Z,128.12
2018-11-23T05:00:10.868Z,116.20
2018-11-23T05:00:43.481Z,111.72
2018-11-23T05:01:16.084Z,113.68
2018-11-23T05:01:48.701Z,126.25
2018-11-23T05:02:21.312Z,124.25
2018-11-23T05:02:53.933Z,132.37
2018-11-23T05:03:26.530Z,113.70
2018-11-23T05:03:59.114Z,134.97
2018-11-23T05:04:31.716Z,112.97
2018-11-23T05:05:05.896Z,128.85
2018-11-23T05:05:38.515Z,120.97
2018-11-23T05:06:11.148Z,117.37
2018-11-23T05:06:43.838Z,122.58
2018-11-23T05:07:16.420Z,118.55
2018-11-23T05:07:49.054Z,108.95
2018-11-23T05:08:21.651Z,109.22
2018-11-23T05:08:54.285Z,126.02
2018-11-23T05:09:26.888Z,120.22
2018-11-23T05:09:59.493Z,125.42
2018-11-23T05:10:32.133Z,117.42
2018-11-23T05:11:04.752Z,116.17
2018-11-23T05:11:37.974Z,127.50
2018-11-23T05:12:10.580Z,117.22
2018-11-23T05:12:43.244Z,120.25
2018-11-23T05:13:15.840Z,119.85
2018-11-23T05:13:48.470Z,114.28
2018-11-23T05:14:21.116Z,118.00
2018-11-23T05:14:53.723Z,120.62
2018-11-23T05:15:26.327Z,109.80
2018-11-23T05:15:58.965Z,128.75
2018-11-23T05:16:31.579Z,115.08
2018-11-23T05:17:04.224Z,129.30
2018-11-23T05:17:36.952Z,112.25
2018-11-23T05:18:09.559Z,109.07
2018-11-23T05:18:42.170Z,115.88
2018-11-23T05:19:14.788Z,104.83
2018-11-23T05:19:47.390Z,122.60
2018-11-23T05:20:19.983Z,118.13
2018-11-23T05:20:52.594Z,119.97
2018-11-23T05:21:25.218Z,120.05
2018-11-23T05:21:57.819Z,120.90
2018-11-23T05:22:30.435Z,135.18
2018-11-23T05:23:03.031Z,129.53
2018-11-23T05:23:35.615Z,111.88
2018-11-23T05:24:08.207Z,121.65
2018-11-23T05:24:40.827Z,114.30
2018-11-23T05:25:14.724Z,117.97
2018-11-23T05:25:47.326Z,122.72
2018-11-23T05:26:19.935Z,122.00
2018-11-23T05:26:52.551Z,108.40
2018-11-23T05:27:25.157Z,114.42
2018-11-23T05:27:57.755Z,123.47
2018-11-23T05:28:30.363Z,122.78
2018-11-23T05:29:02.987Z,118.87
2018-11-23T05:29:35.585Z,112.80
2018-11-23T05:30:13.797Z,114.22
2018-11-23T05:30:46.409Z,108.75
2018-11-23T05:31:19.013Z,115.42
2018-11-23T05:31:51.625Z,113.70
2018-11-23T05:32:24.261Z,111.42
2018-11-23T05:32:56.901Z,127.78
2018-11-23T05:33:29.514Z,121.22
2018-11-23T05:34:02.125Z,115.65
2018-11-23T05:34:34.730Z,114.50
2018-11-23T05:35:08.089Z,114.55
2018-11-23T05:35:40.688Z,107.95
2018-11-23T05:36:13.296Z,124.12
2018-11-23T05:36:45.904Z,114.95
2018-11-23T05:37:18.512Z,123.60
2018-11-23T05:37:51.151Z,123.22
2018-11-23T05:38:23.802Z,112.00
2018-11-23T05:38:56.404Z,113.12
2018-11-23T05:39:29.040Z,121.25
2018-11-23T05:40:01.659Z,113.80
2018-11-23T05:40:34.256Z,112.90
2018-11-23T05:41:06.874Z,115.65
2018-11-23T05:41:39.499Z,115.42
2018-11-23T05:42:12.094Z,115.00
2018-11-23T05:42:44.703Z,127.97
2018-11-23T05:43:17.348Z,112.15
2018-11-23T05:43:50.004Z,127.45
2018-11-23T05:44:22.614Z,126.95
2018-11-23T05:44:55.233Z,121.53
2018-11-23T05:45:27.829Z,117.85
2018-11-23T05:46:00.451Z,125.53
2018-11-23T05:46:33.221Z,108.05
2018-11-23T05:47:06.177Z,120.13
2018-11-23T05:47:38.804Z,122.58
2018-11-23T05:48:11.412Z,128.18
2018-11-23T05:48:44.050Z,123.82
2018-11-23T05:49:16.680Z,117.03
2018-11-23T05:49:49.291Z,116.73
2018-11-23T05:50:24.012Z,120.47
2018-11-23T05:50:56.612Z,111.45
2018-11-23T05:51:29.243Z,129.32
2018-11-23T05:52:01.874Z,117.65
2018-11-23T05:52:34.500Z,126.38
2018-11-23T05:53:07.102Z,128.87
2018-11-23T05:53:39.693Z,118.67
2018-11-23T05:54:12.476Z,116.00
2018-11-23T05:54:45.075Z,119.90
2018-11-23T05:55:17.700Z,123.42
2018-11-23T05:55:50.336Z,131.18
2018-11-23T05:56:22.963Z,121.28
2018-11-23T05:56:55.588Z,134.82
2018-11-23T05:57:28.196Z,134.05
2018-11-23T05:58:00.795Z,135.10
2018-11-23T05:58:33.439Z,114.67
2018-11-23T05:59:06.146Z,123.87
2018-11-23T05:59:38.799Z,120.60
2018-11-23T06:00:14.260Z,117.08
2018-11-23T06:00:46.883Z,133.93
2018-11-23T06:01:19.476Z,123.53
2018-11-23T06:01:52.310Z,130.45
2018-11-23T06:02:24.993Z,116.67
2018-11-23T06:02:57.596Z,124.97
2018-11-23T06:03:30.227Z,121.75
2018-11-23T06:04:02.865Z,117.72
2018-11-23T06:04:35.491Z,116.28
2018-11-23T06:05:08.645Z,118.17
2018-11-23T06:05:41.316Z,126.12
2018-11-23T06:06:13.922Z,128.15
2018-11-23T06:06:46.511Z,128.75
2018-11-23T06:07:19.095Z,125.30
2018-11-23T06:07:51.807Z,135.30
2018-11-23T06:08:24.437Z,119.30
2018-11-23T06:08:57.053Z,126.12
2018-11-23T06:09:29.643Z,123.65
2018-11-23T06:10:02.320Z,131.67
2018-11-23T06:10:34.974Z,121.07
2018-11-23T06:11:07.592Z,132.85
2018-11-23T06:11:40.203Z,118.13
2018-11-23T06:12:12.828Z,124.90
2018-11-23T06:12:45.464Z,129.90
2018-11-23T06:13:18.080Z,123.00
2018-11-23T06:13:50.701Z,119.37
2018-11-23T06:14:23.307Z,119.97
2018-11-23T06:14:55.924Z,129.47
2018-11-23T06:15:28.549Z,121.87
2018-11-23T06:16:01.180Z,122.98
2018-11-23T06:16:33.787Z,135.28
2018-11-23T06:17:06.411Z,125.65
2018-11-23T06:17:39.112Z,127.87
2018-11-23T06:18:11.709Z,131.82
2018-11-23T06:18:44.334Z,130.52
2018-11-23T06:19:16.949Z,128.72
2018-11-23T06:19:49.546Z,121.90
2018-11-23T06:20:23.665Z,123.45
2018-11-23T06:20:56.279Z,120.85
2018-11-23T06:21:28.985Z,112.52
2018-11-23T06:22:01.598Z,126.72
2018-11-23T06:22:34.209Z,131.87
2018-11-23T06:23:06.841Z,122.25
2018-11-23T06:23:39.460Z,131.40
2018-11-23T06:24:12.059Z,131.78
2018-11-23T06:24:44.673Z,132.72
2018-11-23T06:25:37.159Z,126.58
2018-11-23T06:26:16.453Z,132.52
2018-11-23T06:26:49.103Z,118.60
2018-11-23T06:27:21.708Z,125.38
2018-11-23T06:27:54.340Z,125.85
2018-11-23T06:28:26.947Z,114.57
2018-11-23T06:28:59.527Z,122.90
2018-11-23T06:29:32.141Z,115.37
2018-11-23T06:30:05.927Z,126.15
2018-11-23T06:30:38.541Z,136.50
2018-11-23T06:31:11.581Z,124.15
2018-11-23T06:31:44.187Z,121.02
2018-11-23T06:32:28.318Z,132.15
2018-11-23T06:33:12.700Z,122.42
2018-11-23T06:33:46.360Z,137.18
2018-11-23T06:34:18.955Z,126.72
2018-11-23T06:34:51.573Z,128.25
2018-11-23T06:35:24.197Z,115.88
2018-11-23T06:35:56.788Z,135.03
2018-11-23T06:36:29.379Z,130.95
2018-11-23T06:37:01.984Z,128.32
2018-11-23T06:37:34.616Z,130.40
2018-11-23T06:38:07.282Z,135.45
2018-11-23T06:38:39.884Z,128.50
2018-11-23T06:39:12.484Z,116.97
2018-11-23T06:39:45.107Z,127.85
2018-11-23T06:40:18.258Z,135.40
2018-11-23T06:40:50.967Z,115.22
2018-11-23T06:41:23.572Z,122.07
2018-11-23T06:41:56.172Z,132.80
2018-11-23T06:42:28.801Z,146.30
2018-11-23T06:43:01.508Z,130.47
2018-11-23T06:43:34.145Z,129.87
2018-11-23T06:44:06.787Z,135.78
2018-11-23T06:44:39.413Z,129.32
2018-11-23T06:45:12.129Z,125.82
2018-11-23T06:46:47.953Z,122.02
2018-11-23T06:47:20.573Z,131.18
2018-11-23T06:47:53.184Z,123.60
2018-11-23T06:48:25.846Z,123.20
2018-11-23T06:48:58.454Z,123.20
2018-11-23T06:49:31.030Z,123.55
2018-11-23T06:50:04.088Z,129.97
2018-11-23T06:50:36.688Z,130.27
2018-11-23T06:51:09.312Z,123.80
2018-11-23T06:51:41.913Z,120.67
2018-11-23T06:52:14.515Z,127.00
2018-11-23T06:52:47.136Z,135.20
2018-11-23T06:53:19.743Z,129.87
2018-11-23T06:53:52.377Z,124.65
2018-11-23T06:54:24.958Z,122.70
2018-11-23T06:54:57.567Z,124.40
2018-11-23T06:55:30.180Z,128.27
2018-11-23T06:56:03.480Z,126.07
2018-11-23T06:56:36.076Z,123.55
2018-11-23T06:57:08.690Z,120.35
2018-11-23T06:57:41.615Z,132.15
2018-11-23T06:58:14.228Z,134.03